createdAt,value
2023-04-07T00:01:30.078Z,41.03
2023-04-07T00:03:58.280Z,41.63
2023-04-07T00:06:27.440Z,31.55
2023-04-07T00:08:55.260Z,43.10
2023-04-07T00:11:23.027Z,39.88
2023-04-07T00:13:50.817Z,32.67
2023-04-07T00:16:20.117Z,42.38
2023-04-07T00:18:48.016Z,35.03
2023-04-07T00:21:15.815Z,41.58
2023-04-07T00:23:43.727Z,41.40
2023-04-07T00:26:11.485Z,52.50
2023-04-07T00:28:39.195Z,37.13
2023-04-07T00:31:07.063Z,40.13
2023-04-07T00:33:36.382Z,42.83
2023-04-07T00:36:04.141Z,29.98
2023-04-07T00:38:31.868Z,22.13
2023-04-07T00:41:00.341Z,20.73
2023-04-07T00:43:28.089Z,22.17
2023-04-07T00:45:56.044Z,25.30
2023-04-07T00:48:24.104Z,25.60
2023-04-07T00:50:53.325Z,26.30
2023-04-07T00:53:21.301Z,19.08
2023-04-07T00:55:49.375Z,20.92
2023-04-07T00:58:17.140Z,21.13
2023-04-07T01:00:50.788Z,21.77
2023-04-07T01:03:22.394Z,19.27
2023-04-07T01:05:57.069Z,22.80
2023-04-07T01:08:31.835Z,25.25
2023-04-07T01:11:06.932Z,20.55
2023-04-07T01:13:39.797Z,29.00
2023-04-07T01:16:12.790Z,28.85
2023-04-07T01:18:41.521Z,30.63
2023-04-07T01:21:15.396Z,26.13
2023-04-07T01:23:57.156Z,24.25
2023-04-07T01:26:29.106Z,24.90
2023-04-07T01:29:16.940Z,29.30
2023-04-07T01:31:49.659Z,28.13
2023-04-07T01:34:19.565Z,31.58
2023-04-07T01:36:48.412Z,28.35
2023-04-07T01:39:17.347Z,31.65
2023-04-07T01:41:46.150Z,31.27
2023-04-07T01:44:14.992Z,31.63
2023-04-07T01:46:42.874Z,29.52
2023-04-07T01:49:13.604Z,32.47
2023-04-07T01:51:42.591Z,35.42
2023-04-07T01:54:10.878Z,33.75
2023-04-07T01:56:38.563Z,33.88
2023-04-07T01:59:06.252Z,40.10
2023-04-07T02:01:34.086Z,37.15
2023-04-07T02:04:09.755Z,37.10
2023-04-07T02:06:44.479Z,40.65
2023-04-07T02:09:14.438Z,35.35
2023-04-07T02:11:45.100Z,35.58
2023-04-07T02:14:14.564Z,35.40
2023-04-07T02:16:45.212Z,34.95
2023-04-07T02:19:14.699Z,36.33
2023-04-07T02:21:46.717Z,35.00
2023-04-07T02:24:14.479Z,36.67
2023-04-07T02:26:44.096Z,39.80
2023-04-07T02:29:11.869Z,35.38
2023-04-07T02:31:39.568Z,35.13
2023-04-07T02:34:07.414Z,37.95
2023-04-07T02:36:35.645Z,36.28
2023-04-07T02:39:05.461Z,34.50
2023-04-07T02:41:33.137Z,34.63
2023-04-07T02:44:00.909Z,34.78
2023-04-07T02:46:28.661Z,34.15
2023-04-07T02:48:56.389Z,33.75
2023-04-07T02:51:24.099Z,33.15
2023-04-07T02:53:51.832Z,33.03
2023-04-07T02:56:20.954Z,32.78
2023-04-07T02:58:48.651Z,33.47
2023-04-07T03:01:16.452Z,35.45
2023-04-07T03:03:45.311Z,31.15
2023-04-07T03:06:13.573Z,32.30
2023-04-07T03:08:42.221Z,31.05
2023-04-07T03:11:09.930Z,29.75
2023-04-07T03:13:38.995Z,30.80
2023-04-07T03:16:06.801Z,30.48
2023-04-07T03:18:34.544Z,30.63
2023-04-07T03:21:02.227Z,27.00
2023-04-07T03:23:30.284Z,29.35
2023-04-07T03:25:58.743Z,31.65
2023-04-07T03:28:26.549Z,30.08
2023-04-07T03:30:55.724Z,30.00
2023-04-07T03:33:23.473Z,29.35
2023-04-07T03:35:51.181Z,27.95
2023-04-07T03:38:18.938Z,27.15
2023-04-07T03:40:46.654Z,30.63
2023-04-07T03:43:15.751Z,29.00
2023-04-07T03:45:43.821Z,31.55
2023-04-07T03:48:12.891Z,28.25
2023-04-07T03:50:41.287Z,29.40
2023-04-07T03:53:09.412Z,26.98
2023-04-07T03:55:39.804Z,30.02
2023-04-07T03:58:07.739Z,26.45
2023-04-07T04:00:35.649Z,26.00
2023-04-07T04:03:03.729Z,25.80
2023-04-07T04:05:32.968Z,23.92
2023-04-07T04:08:00.733Z,24.45
2023-04-07T04:10:28.443Z,26.10
2023-04-07T04:12:56.740Z,26.02
2023-04-07T04:15:24.621Z,25.52
2023-04-07T04:17:52.388Z,24.92
2023-04-07T04:20:22.141Z,23.33
2023-04-07T04:22:51.325Z,24.52
2023-04-07T04:25:19.423Z,22.95
2023-04-07T04:27:47.238Z,27.40
2023-04-07T04:30:15.215Z,25.10
2023-04-07T04:32:42.980Z,23.67
2023-04-07T04:35:11.189Z,22.00
2023-04-07T04:37:38.942Z,24.20
2023-04-07T04:40:09.476Z,22.50
2023-04-07T04:42:37.512Z,22.75
2023-04-07T04:45:06.658Z,23.58
2023-04-07T04:47:34.335Z,21.05
2023-04-07T04:50:02.405Z,20.42
2023-04-07T04:52:30.109Z,20.98
2023-04-07T04:54:57.886Z,21.30
2023-04-07T04:57:27.042Z,21.75
2023-04-07T04:59:54.743Z,21.25
2023-04-07T05:02:22.608Z,18.95
2023-04-07T05:04:50.998Z,19.27
2023-04-07T05:07:18.766Z,19.40
2023-04-07T05:09:46.426Z,19.85
2023-04-07T05:12:14.089Z,18.85
2023-04-07T05:14:43.133Z,19.80
2023-04-07T05:17:10.818Z,18.92
2023-04-07T05:19:38.521Z,18.50
2023-04-07T05:22:06.254Z,20.33
2023-04-07T05:24:35.885Z,18.52
2023-04-07T05:27:12.877Z,19.77
2023-04-07T05:29:40.729Z,18.27
2023-04-07T05:32:09.913Z,20.25
2023-04-07T05:34:41.216Z,20.73
2023-04-07T05:37:09.027Z,20.48
2023-04-07T05:39:41.516Z,21.67
2023-04-07T05:44:40.066Z,20.25
2023-04-07T05:47:12.847Z,19.83
2023-04-07T05:49:48.942Z,19.42
2023-04-07T05:52:16.711Z,19.85
2023-04-07T05:54:44.572Z,18.23
2023-04-07T05:57:12.306Z,21.55
2023-04-07T05:59:40.181Z,19.92
2023-04-07T06:02:09.487Z,20.10
2023-04-07T06:04:39.476Z,17.17
2023-04-07T06:07:07.409Z,17.65
2023-04-07T06:09:35.632Z,19.10
2023-04-07T06:12:05.252Z,19.55
2023-04-07T06:14:33.133Z,18.95
2023-04-07T06:17:01.283Z,18.25
2023-04-07T06:19:30.920Z,17.23
2023-04-07T06:21:58.770Z,18.08
2023-04-07T06:24:27.163Z,18.05
2023-04-07T06:26:56.326Z,18.88
2023-04-07T06:29:24.169Z,18.15
2023-04-07T06:31:51.898Z,20.75
2023-04-07T06:34:19.693Z,18.58
2023-04-07T06:36:49.864Z,20.52
2023-04-07T06:39:17.776Z,18.92
2023-04-07T06:41:46.960Z,18.35
2023-04-07T06:44:14.812Z,16.77
2023-04-07T06:46:43.161Z,18.10
2023-04-07T06:49:12.083Z,17.75
2023-04-07T06:51:39.866Z,19.10
2023-04-07T06:54:13.766Z,18.40
2023-04-07T06:56:41.987Z,19.48
2023-04-07T06:59:10.154Z,17.25
2023-04-07T07:01:40.066Z,18.65
2023-04-07T07:04:08.438Z,16.67
2023-04-07T07:06:36.718Z,15.63
2023-04-07T07:09:04.721Z,15.32
2023-04-07T07:11:33.960Z,16.60
2023-04-07T07:14:01.803Z,19.65
2023-04-07T07:16:29.583Z,16.98
2023-04-07T07:18:57.373Z,19.15
2023-04-07T07:21:26.680Z,18.17
2023-04-07T07:23:54.649Z,15.85
2023-04-07T07:26:22.482Z,16.95
2023-04-07T07:28:51.679Z,16.25
2023-04-07T07:31:19.581Z,14.55
2023-04-07T07:33:49.206Z,13.77
2023-04-07T07:36:17.187Z,14.75
2023-04-07T07:38:44.992Z,15.20
2023-04-07T07:41:12.806Z,15.40
2023-04-07T07:43:41.114Z,15.35
2023-04-07T07:46:13.648Z,15.00
2023-04-07T07:48:41.670Z,15.25
2023-04-07T07:51:09.754Z,14.52
2023-04-07T07:53:38.059Z,14.05
2023-04-07T07:56:06.095Z,14.93
2023-04-07T07:58:34.064Z,15.40
2023-04-07T08:01:02.257Z,15.80
2023-04-07T08:03:32.086Z,14.60
2023-04-07T08:06:00.011Z,16.65
2023-04-07T08:08:27.971Z,17.08
2023-04-07T08:10:55.917Z,17.52
2023-04-07T08:13:24.026Z,18.98
2023-04-07T08:15:53.415Z,17.08
2023-04-07T08:18:23.083Z,17.92
2023-04-07T08:20:52.816Z,16.95
2023-04-07T08:23:21.102Z,18.13
2023-04-07T08:25:48.856Z,17.55
2023-04-07T08:28:17.006Z,16.90
2023-04-07T08:30:44.969Z,18.23
2023-04-07T08:33:12.828Z,16.83
2023-04-07T08:35:43.627Z,19.35
2023-04-07T08:38:12.837Z,14.70
2023-04-07T08:40:40.784Z,15.77
2023-04-07T08:43:11.039Z,13.93
2023-04-07T08:45:42.165Z,15.45
2023-04-07T08:48:17.791Z,18.30
2023-04-07T08:50:46.888Z,15.90
2023-04-07T08:53:20.482Z,17.02
2023-04-07T08:55:48.297Z,17.50
2023-04-07T08:58:17.747Z,15.73
2023-04-07T09:00:49.158Z,16.48
2023-04-07T09:03:17.916Z,15.98
2023-04-07T09:05:46.462Z,17.35
2023-04-07T09:08:14.276Z,18.15
2023-04-07T09:10:43.638Z,19.02
2023-04-07T09:13:11.525Z,19.30
2023-04-07T09:15:40.188Z,18.52
2023-04-07T09:18:08.228Z,16.88
2023-04-07T09:20:59.457Z,17.13
2023-04-07T09:23:32.323Z,17.23
2023-04-07T09:26:02.813Z,18.27
2023-04-07T09:28:42.506Z,18.90
2023-04-07T09:31:10.554Z,18.58
2023-04-07T09:33:38.772Z,16.27
2023-04-07T09:36:08.029Z,18.95
2023-04-07T09:38:37.121Z,17.63
2023-04-07T09:41:10.642Z,17.35
2023-04-07T09:43:40.630Z,17.58
2023-04-07T09:46:12.796Z,18.83
2023-04-07T09:48:41.124Z,18.67
2023-04-07T09:51:11.779Z,16.70
2023-04-07T09:53:47.927Z,18.05
2023-04-07T09:56:19.293Z,17.73
2023-04-07T09:58:48.429Z,17.30
2023-04-07T10:01:18.150Z,16.90
2023-04-07T10:03:47.894Z,17.08
2023-04-07T10:06:16.863Z,17.77
2023-04-07T10:08:45.099Z,16.70
2023-04-07T10:11:12.913Z,16.40
2023-04-07T10:13:42.631Z,17.20
2023-04-07T10:16:11.252Z,15.95
2023-04-07T10:18:40.371Z,16.30
2023-04-07T10:21:16.306Z,14.90
2023-04-07T10:23:53.068Z,13.88
2023-04-07T10:26:26.721Z,14.45
2023-04-07T10:29:03.934Z,14.20
2023-04-07T10:31:32.649Z,13.68
2023-04-07T10:34:03.948Z,13.25
2023-04-07T10:36:31.852Z,12.15
2023-04-07T10:39:25.602Z,13.02
2023-04-07T10:41:53.424Z,12.80
2023-04-07T10:44:53.110Z,10.48
2023-04-07T10:47:20.950Z,11.57
2023-04-07T10:50:16.635Z,11.00
2023-04-07T10:52:44.943Z,10.27
2023-04-07T10:55:33.817Z,10.15
2023-04-07T10:58:22.743Z,10.68
2023-04-07T11:01:22.013Z,10.32
2023-04-07T11:04:02.315Z,9.57
2023-04-07T11:06:31.509Z,10.98
2023-04-07T11:08:59.469Z,9.30
2023-04-07T11:11:40.227Z,9.68
2023-04-07T11:14:08.263Z,9.63
2023-04-07T11:16:39.581Z,8.63
2023-04-07T11:19:07.652Z,8.63
2023-04-07T11:21:36.706Z,8.48
2023-04-07T11:24:05.297Z,9.30
2023-04-07T11:26:40.219Z,10.70
2023-04-07T11:29:08.091Z,11.18
2023-04-07T11:31:36.069Z,11.27
2023-04-07T11:34:06.332Z,12.18
2023-04-07T11:36:35.827Z,12.68
2023-04-07T11:39:04.598Z,13.15
2023-04-07T11:41:33.836Z,12.27
2023-04-07T11:44:09.027Z,12.30
2023-04-07T11:46:37.319Z,13.05
2023-04-07T11:49:14.047Z,12.68
2023-04-07T11:51:44.231Z,14.57
2023-04-07T11:54:12.169Z,16.40
2023-04-07T11:56:45.331Z,14.75
2023-04-07T11:59:22.840Z,14.60
2023-04-07T12:01:52.357Z,14.88
2023-04-07T12:04:23.028Z,13.05
2023-04-07T12:06:51.659Z,12.40
2023-04-07T12:09:30.874Z,13.45
2023-04-07T12:11:59.852Z,13.25
2023-04-07T12:14:29.160Z,12.63
2023-04-07T12:16:58.290Z,12.23
2023-04-07T12:19:30.036Z,11.48
2023-04-07T12:21:58.300Z,12.60
2023-04-07T12:24:27.116Z,11.07
2023-04-07T12:26:55.038Z,11.43
2023-04-07T12:29:23.089Z,11.50
2023-04-07T12:31:51.437Z,13.02
2023-04-07T12:34:19.851Z,12.35
2023-04-07T12:36:55.261Z,16.65
2023-04-07T12:39:26.282Z,14.98
2023-04-07T12:41:54.131Z,16.38
2023-04-07T12:44:21.957Z,15.90
2023-04-07T12:46:49.776Z,16.98
2023-04-07T12:49:17.728Z,16.73
2023-04-07T12:51:46.037Z,15.23
2023-04-07T12:54:15.489Z,16.67
2023-04-07T12:56:43.668Z,18.42
2023-04-07T12:59:11.602Z,16.75
2023-04-07T13:01:42.522Z,18.98
2023-04-07T13:04:11.097Z,17.60
2023-04-07T13:06:39.133Z,16.15
2023-04-07T13:09:09.983Z,15.95
2023-04-07T13:11:39.225Z,15.20
2023-04-07T13:14:07.678Z,14.98
2023-04-07T13:16:36.060Z,15.52
2023-04-07T13:19:04.064Z,15.18
2023-04-07T13:21:43.742Z,16.88
2023-04-07T13:24:13.771Z,15.77
2023-04-07T13:26:42.898Z,14.85
2023-04-07T13:29:10.707Z,17.02
2023-04-07T13:31:38.513Z,14.65
2023-04-07T13:34:06.250Z,15.00
2023-04-07T13:36:34.102Z,14.85
2023-04-07T13:39:02.259Z,14.88
2023-04-07T13:41:30.021Z,13.95
2023-04-07T13:43:59.520Z,12.85
2023-04-07T13:46:28.933Z,13.30
2023-04-07T13:48:57.201Z,11.77
2023-04-07T13:51:25.044Z,13.02
2023-04-07T13:53:52.792Z,14.00
2023-04-07T13:56:22.221Z,13.35
2023-04-07T13:58:50.398Z,15.07
2023-04-07T14:01:40.648Z,16.17
2023-04-07T14:04:08.834Z,16.38
2023-04-07T14:06:38.035Z,18.83
2023-04-07T14:09:06.500Z,20.27
2023-04-07T14:11:35.757Z,19.25
2023-04-07T14:14:03.772Z,19.35
2023-04-07T14:16:33.208Z,20.27
2023-04-07T14:19:01.057Z,22.38
2023-04-07T14:21:28.890Z,22.33
2023-04-07T14:23:56.899Z,23.10
2023-04-07T14:26:24.761Z,23.08
2023-04-07T14:28:52.584Z,21.58
2023-04-07T14:31:20.976Z,21.92
2023-04-07T14:33:51.232Z,19.35
2023-04-07T14:36:19.266Z,23.45
2023-04-07T14:38:47.031Z,18.38
2023-04-07T14:41:14.818Z,17.55
2023-04-07T14:43:42.686Z,17.70
2023-04-07T14:46:10.478Z,18.55
2023-04-07T14:48:39.110Z,19.48
2023-04-07T14:51:13.821Z,18.52
2023-04-07T14:53:43.524Z,19.00
2023-04-07T14:56:11.434Z,19.10
2023-04-07T14:58:40.626Z,18.83
2023-04-07T15:01:11.264Z,19.17
2023-04-07T15:03:40.855Z,22.15
2023-04-07T15:06:10.051Z,20.88
2023-04-07T15:08:39.515Z,20.10
2023-04-07T15:11:10.542Z,20.17
2023-04-07T15:14:06.556Z,19.05
2023-04-07T15:16:36.195Z,20.15
2023-04-07T15:19:05.514Z,19.48
2023-04-07T15:21:33.483Z,19.67
2023-04-07T15:24:02.973Z,19.38
2023-04-07T15:26:31.007Z,18.65
2023-04-07T15:28:58.894Z,21.50
2023-04-07T15:31:28.594Z,18.10
2023-04-07T15:33:56.694Z,19.10
2023-04-07T15:36:26.145Z,18.42
2023-04-07T15:39:00.163Z,18.80
2023-04-07T15:41:29.417Z,16.50
2023-04-07T15:44:01.224Z,14.73
2023-04-07T15:46:33.565Z,13.45
2023-04-07T15:51:31.451Z,12.88
2023-04-07T15:54:08.167Z,13.13
2023-04-07T15:56:47.460Z,13.60
2023-04-07T15:59:16.229Z,13.05
2023-04-07T16:01:46.700Z,12.43
2023-04-07T16:04:17.271Z,13.27
2023-04-07T16:06:54.465Z,11.73
2023-04-07T16:09:22.501Z,11.20
2023-04-07T16:11:51.647Z,10.15
2023-04-07T16:14:19.364Z,13.57
2023-04-07T16:16:47.316Z,11.50
2023-04-07T16:19:15.430Z,11.90
2023-04-07T16:21:43.162Z,11.85
2023-04-07T16:24:13.686Z,11.45
2023-04-07T16:26:41.601Z,12.77
2023-04-07T16:29:11.274Z,12.32
2023-04-07T16:31:39.571Z,12.73
2023-04-07T16:34:07.545Z,12.00
2023-04-07T16:36:35.754Z,14.18
2023-04-07T16:39:06.225Z,12.02
2023-04-07T16:41:34.118Z,12.50
2023-04-07T16:44:02.007Z,11.82
2023-04-07T16:46:31.451Z,14.98
2023-04-07T16:48:59.837Z,14.45
2023-04-07T16:51:28.508Z,12.02
2023-04-07T16:53:56.412Z,11.60
2023-04-07T16:56:26.019Z,12.35
2023-04-07T16:58:56.528Z,12.68
2023-04-07T17:01:24.339Z,11.48
2023-04-07T17:03:53.944Z,12.63
2023-04-07T17:06:21.989Z,12.30
2023-04-07T17:08:49.905Z,12.68
2023-04-07T17:11:19.594Z,12.90
2023-04-07T17:13:47.888Z,12.73
2023-04-07T17:16:16.337Z,13.48
2023-04-07T17:18:44.138Z,13.57
2023-04-07T17:21:13.586Z,13.75
2023-04-07T17:23:41.335Z,17.95
2023-04-07T17:26:09.198Z,17.20
2023-04-07T17:28:37.045Z,14.95
2023-04-07T17:31:04.997Z,15.27
2023-04-07T17:33:35.980Z,14.68
2023-04-07T17:36:04.033Z,15.85
2023-04-07T17:38:33.651Z,16.25
2023-04-07T17:41:02.931Z,16.38
2023-04-07T17:43:31.771Z,14.00
2023-04-07T17:45:59.665Z,14.00
2023-04-07T17:48:27.653Z,16.25
2023-04-07T17:50:56.300Z,20.58
2023-04-07T17:53:24.098Z,20.25
2023-04-07T17:55:53.250Z,18.17
2023-04-07T17:58:21.260Z,15.98
2023-04-07T18:00:50.544Z,17.50
2023-04-07T18:03:19.547Z,14.90
2023-04-07T18:05:49.103Z,13.60
2023-04-07T18:08:17.107Z,17.00
2023-04-07T18:10:44.962Z,16.88
2023-04-07T18:13:21.345Z,23.70
2023-04-07T18:15:49.146Z,17.42
2023-04-07T18:18:17.296Z,15.63
2023-04-07T18:20:45.151Z,16.00
2023-04-07T18:23:13.625Z,16.35
2023-04-07T18:25:41.696Z,13.38
2023-04-07T18:28:11.997Z,13.23
2023-04-07T18:30:42.106Z,15.43
2023-04-07T18:33:10.131Z,13.57
2023-04-07T18:35:38.067Z,15.60
2023-04-07T18:38:06.424Z,13.02
2023-04-07T18:40:35.469Z,12.82
2023-04-07T18:43:05.945Z,12.73
2023-04-07T18:45:36.832Z,13.05
2023-04-07T18:48:06.481Z,14.20
2023-04-07T18:50:34.349Z,12.32
2023-04-07T18:53:02.182Z,13.88
2023-04-07T18:55:29.918Z,15.32
2023-04-07T18:57:57.808Z,15.77
2023-04-07T19:00:25.571Z,17.60
2023-04-07T19:02:53.446Z,18.05
2023-04-07T19:05:25.578Z,23.08
2023-04-07T19:07:53.735Z,19.83
2023-04-07T19:10:21.713Z,18.15
2023-04-07T19:12:49.480Z,19.33
2023-04-07T19:15:17.301Z,17.52
2023-04-07T19:17:45.394Z,17.67
2023-04-07T19:20:13.109Z,18.77
2023-04-07T19:22:42.201Z,17.88
2023-04-07T19:25:10.613Z,18.45
2023-04-07T19:27:39.500Z,18.35
2023-04-07T19:30:08.611Z,17.02
2023-04-07T19:32:36.763Z,17.13
2023-04-07T19:35:04.767Z,17.77
2023-04-07T19:37:32.508Z,17.80
2023-04-07T19:40:03.261Z,17.75
2023-04-07T19:42:31.481Z,17.95
2023-04-07T19:45:02.303Z,19.17
2023-04-07T19:47:30.529Z,19.48
2023-04-07T19:49:58.869Z,21.42
2023-04-07T19:52:26.682Z,18.40
2023-04-07T19:54:54.409Z,18.63
2023-04-07T19:57:23.718Z,18.77
2023-04-07T19:59:51.771Z,19.17
2023-04-07T20:02:19.676Z,18.30
2023-04-07T20:04:47.380Z,21.23
2023-04-07T20:07:15.562Z,23.35
2023-04-07T20:09:43.331Z,20.70
2023-04-07T20:12:11.163Z,24.63
2023-04-07T20:14:40.421Z,21.52
2023-04-07T20:17:08.596Z,20.52
2023-04-07T20:19:36.735Z,22.73
2023-04-07T20:22:04.565Z,19.67
2023-04-07T20:24:32.348Z,20.15
2023-04-07T20:27:00.114Z,21.48
2023-04-07T20:29:27.905Z,22.38
2023-04-07T20:31:57.026Z,20.45
2023-04-07T20:34:24.755Z,25.42
2023-04-07T20:36:52.600Z,26.50
2023-04-07T20:39:20.532Z,23.33
2023-04-07T20:41:48.293Z,21.92
2023-04-07T20:44:16.272Z,22.05
2023-04-07T20:46:45.139Z,24.27
2023-04-07T20:49:14.738Z,26.02
2023-04-07T20:51:42.558Z,26.83
2023-04-07T20:54:10.398Z,22.90
2023-04-07T20:56:38.402Z,24.95
2023-04-07T20:59:06.258Z,27.73
2023-04-07T21:01:34.179Z,23.25
2023-04-07T21:04:02.921Z,21.95
2023-04-07T21:06:32.742Z,25.65
2023-04-07T21:09:01.283Z,23.50
2023-04-07T21:11:29.147Z,27.75
2023-04-07T21:13:56.882Z,22.90
2023-04-07T21:16:24.831Z,26.67
2023-04-07T21:18:52.833Z,23.48
2023-04-07T21:21:20.737Z,23.17
2023-04-07T21:23:50.002Z,24.95
2023-04-07T21:26:17.888Z,22.75
2023-04-07T21:28:45.706Z,22.90
2023-04-07T21:31:21.662Z,21.95
2023-04-07T21:33:49.976Z,24.90
2023-04-07T21:36:17.779Z,22.85
2023-04-07T21:38:45.814Z,23.88
2023-04-07T21:41:15.467Z,23.40
2023-04-07T21:43:43.244Z,23.98
2023-04-07T21:46:11.456Z,25.90
2023-04-07T21:48:39.247Z,24.77
2023-04-07T21:51:08.052Z,25.17
2023-04-07T21:53:36.691Z,31.20
2023-04-07T21:56:04.677Z,30.85
2023-04-07T21:58:33.915Z,28.08
2023-04-07T22:01:01.895Z,34.53
2023-04-07T22:03:30.582Z,34.42
2023-04-07T22:05:59.289Z,35.17
2023-04-07T22:08:27.270Z,37.28
2023-04-07T22:10:55.536Z,32.75
2023-04-07T22:13:23.317Z,39.22
2023-04-07T22:15:52.776Z,29.38
2023-04-07T22:18:22.034Z,29.67
2023-04-07T22:20:49.936Z,27.55
2023-04-07T22:23:17.867Z,27.90
2023-04-07T22:25:45.625Z,31.55
2023-04-07T22:28:13.306Z,36.67
2023-04-07T22:30:40.975Z,31.52
2023-04-07T22:33:10.650Z,28.65
2023-04-07T22:35:39.124Z,28.98
2023-04-07T22:38:07.034Z,34.20
2023-04-07T22:40:35.036Z,31.25
2023-04-07T22:43:02.929Z,31.63
2023-04-07T22:45:31.531Z,32.72
2023-04-07T22:47:59.319Z,30.70
2023-04-07T22:50:28.500Z,28.83
2023-04-07T22:52:56.323Z,31.52
2023-04-07T22:55:24.116Z,27.48
2023-04-07T22:57:51.820Z,34.95
2023-04-07T23:00:19.521Z,28.50
2023-04-07T23:02:47.667Z,31.70
2023-04-07T23:05:15.905Z,31.35
2023-04-07T23:07:45.293Z,40.00
2023-04-07T23:10:13.369Z,38.53
2023-04-07T23:12:41.263Z,41.42
2023-04-07T23:15:10.282Z,36.78
2023-04-07T23:17:38.146Z,28.85
2023-04-07T23:20:07.002Z,27.52
2023-04-07T23:22:34.895Z,34.38
2023-04-07T23:25:04.856Z,31.65
2023-04-07T23:27:32.995Z,30.25
2023-04-07T23:30:00.715Z,37.33
2023-04-07T23:32:28.751Z,37.40
2023-04-07T23:34:56.536Z,33.22
2023-04-07T23:37:24.310Z,30.65
2023-04-07T23:39:52.844Z,32.72
2023-04-07T23:42:21.992Z,23.80
2023-04-07T23:44:49.718Z,25.10
2023-04-07T23:47:17.465Z,30.45
2023-04-07T23:49:45.281Z,32.83
2023-04-07T23:52:13.001Z,29.55
2023-04-07T23:54:40.676Z,30.08
2023-04-07T23:57:08.442Z,35.50
2023-04-07T23:59:37.773Z,22.38
